createdAt,value
2022-11-07T00:01:47.338Z,0.40
2022-11-07T00:04:15.160Z,0.63
2022-11-07T00:06:42.621Z,0.40
2022-11-07T00:09:09.481Z,0.60
2022-11-07T00:11:36.286Z,0.60
2022-11-07T00:14:03.188Z,0.32
2022-11-07T00:16:30.655Z,0.30
2022-11-07T00:18:57.465Z,0.63
2022-11-07T00:21:24.437Z,0.60
2022-11-07T00:23:51.247Z,0.40
2022-11-07T00:26:18.137Z,0.40
2022-11-07T00:28:45.679Z,0.35
2022-11-07T00:31:14.880Z,0.30
2022-11-07T00:33:43.522Z,0.50
2022-11-07T00:36:21.371Z,0.30
2022-11-07T00:38:48.574Z,0.43
2022-11-07T00:41:15.988Z,0.40
2022-11-07T00:43:42.975Z,0.60
2022-11-07T00:46:11.967Z,0.40
2022-11-07T00:48:39.012Z,0.40
2022-11-07T00:51:22.486Z,0.40
2022-11-07T00:53:49.699Z,0.30
2022-11-07T00:56:21.865Z,0.30
2022-11-07T00:58:48.894Z,0.30
2022-11-07T01:01:26.365Z,0.50
2022-11-07T01:04:12.742Z,0.50
2022-11-07T01:06:41.976Z,0.35
2022-11-07T01:09:11.873Z,0.30
2022-11-07T01:11:40.329Z,0.30
2022-11-07T01:14:08.833Z,0.30
2022-11-07T01:16:35.781Z,0.50
2022-11-07T01:19:03.923Z,0.47
2022-11-07T01:21:31.408Z,0.50
2022-11-07T01:24:00.282Z,0.55
2022-11-07T01:26:27.667Z,0.30
2022-11-07T01:28:54.472Z,0.30
2022-11-07T01:31:21.462Z,0.40
2022-11-07T01:33:48.256Z,0.30
2022-11-07T01:36:17.829Z,0.40
2022-11-07T01:38:51.046Z,0.30
2022-11-07T01:41:27.483Z,0.45
2022-11-07T01:44:08.140Z,0.40
2022-11-07T01:46:42.861Z,0.38
2022-11-07T01:49:23.470Z,0.43
2022-11-07T01:52:16.988Z,0.40
2022-11-07T01:55:17.680Z,0.73
2022-11-07T01:57:57.666Z,0.50
2022-11-07T02:00:26.031Z,0.40
2022-11-07T02:03:01.550Z,0.40
2022-11-07T02:05:45.034Z,0.30
2022-11-07T02:08:15.193Z,0.43
2022-11-07T02:10:43.895Z,0.40
2022-11-07T02:13:18.290Z,0.50
2022-11-07T02:15:45.213Z,0.52
2022-11-07T02:18:12.287Z,0.50
2022-11-07T02:20:39.115Z,0.40
2022-11-07T02:23:19.673Z,0.75
2022-11-07T02:25:47.088Z,0.45
2022-11-07T02:28:15.401Z,0.40
2022-11-07T02:30:42.210Z,0.30
2022-11-07T02:33:29.248Z,0.70
2022-11-07T02:35:56.152Z,0.47
2022-11-07T02:38:32.137Z,0.40
2022-11-07T02:41:06.822Z,0.32
2022-11-07T02:43:39.008Z,0.30
2022-11-07T02:46:10.045Z,0.40
2022-11-07T02:49:03.478Z,0.45
2022-11-07T02:51:30.332Z,0.40
2022-11-07T02:53:57.395Z,0.52
2022-11-07T02:56:25.205Z,0.30
2022-11-07T02:58:55.027Z,0.30
2022-11-07T03:01:23.113Z,0.45
2022-11-07T03:03:51.808Z,0.40
2022-11-07T03:06:23.569Z,0.40
2022-11-07T03:08:51.168Z,0.43
2022-11-07T03:11:21.312Z,0.38
2022-11-07T03:13:50.213Z,0.50
2022-11-07T03:16:19.210Z,0.40
2022-11-07T03:18:46.054Z,0.38
2022-11-07T03:21:12.986Z,0.40
2022-11-07T03:23:39.946Z,0.55
2022-11-07T03:26:06.886Z,0.40
2022-11-07T03:28:34.954Z,0.40
2022-11-07T03:31:03.835Z,0.40
2022-11-07T03:33:31.176Z,0.52
2022-11-07T03:35:58.116Z,0.40
2022-11-07T03:38:25.010Z,0.40
2022-11-07T03:40:51.947Z,0.30
2022-11-07T03:43:18.757Z,0.50
2022-11-07T03:45:45.540Z,0.52
2022-11-07T03:48:12.359Z,0.30
2022-11-07T03:50:41.877Z,0.50
2022-11-07T03:53:08.685Z,0.35
2022-11-07T03:55:35.491Z,0.40
2022-11-07T03:58:02.365Z,0.43
2022-11-07T04:00:29.277Z,0.30
2022-11-07T04:02:56.214Z,0.45
2022-11-07T04:05:23.061Z,0.32
2022-11-07T04:07:49.827Z,0.40
2022-11-07T04:10:16.733Z,0.40
2022-11-07T04:13:03.061Z,0.40
2022-11-07T04:15:48.334Z,0.40
2022-11-07T04:18:15.140Z,0.43
2022-11-07T04:20:42.147Z,0.40
2022-11-07T04:23:09.069Z,0.25
2022-11-07T04:25:54.415Z,0.30
2022-11-07T04:28:21.197Z,0.50
2022-11-07T04:30:48.082Z,0.50
2022-11-07T04:33:15.184Z,0.30
2022-11-07T04:35:42.237Z,0.40
2022-11-07T04:38:09.088Z,0.50
2022-11-07T04:40:35.947Z,0.40
2022-11-07T04:43:08.924Z,0.30
2022-11-07T04:45:39.343Z,0.50
2022-11-07T04:48:06.741Z,0.40
2022-11-07T04:50:33.768Z,0.30
2022-11-07T04:53:00.582Z,0.40
2022-11-07T04:55:30.680Z,0.40
2022-11-07T04:57:57.815Z,0.40
2022-11-07T05:00:25.310Z,0.50
2022-11-07T05:02:52.748Z,0.30
2022-11-07T05:05:20.164Z,0.30
2022-11-07T05:07:48.140Z,0.47
2022-11-07T05:10:28.405Z,0.60
2022-11-07T05:12:56.634Z,0.50
2022-11-07T05:15:24.283Z,0.50
2022-11-07T05:17:51.246Z,0.55
2022-11-07T05:20:29.593Z,0.40
2022-11-07T05:23:13.523Z,0.30
2022-11-07T05:25:58.654Z,0.52
2022-11-07T05:28:36.968Z,0.40
2022-11-07T05:31:07.459Z,0.50
2022-11-07T05:33:35.231Z,0.30
2022-11-07T05:36:11.197Z,0.45
2022-11-07T05:38:40.643Z,2.03
2022-11-07T05:41:07.436Z,1.05
2022-11-07T05:43:34.385Z,1.45
2022-11-07T05:46:02.102Z,1.25
2022-11-07T05:48:30.460Z,1.20
2022-11-07T05:50:58.202Z,0.77
2022-11-07T05:53:26.486Z,0.55
2022-11-07T05:55:54.406Z,0.70
2022-11-07T05:58:22.070Z,0.60
2022-11-07T06:00:49.309Z,0.75
2022-11-07T06:03:18.518Z,0.68
2022-11-07T06:05:46.631Z,0.60
2022-11-07T06:08:15.117Z,0.60
2022-11-07T06:10:43.931Z,0.55
2022-11-07T06:13:14.875Z,0.60
2022-11-07T06:15:44.109Z,0.90
2022-11-07T06:18:28.935Z,0.70
2022-11-07T06:20:55.887Z,0.60
2022-11-07T06:23:22.802Z,0.40
2022-11-07T06:25:51.214Z,0.63
2022-11-07T06:28:18.017Z,0.50
2022-11-07T06:30:45.222Z,0.55
2022-11-07T06:33:18.154Z,0.60
2022-11-07T06:35:46.617Z,0.60
2022-11-07T06:38:15.367Z,0.85
2022-11-07T06:40:42.937Z,0.57
2022-11-07T06:43:14.877Z,0.70
2022-11-07T06:45:44.367Z,0.70
2022-11-07T06:48:12.301Z,0.60
2022-11-07T06:50:40.147Z,0.50
2022-11-07T06:53:11.319Z,0.40
2022-11-07T06:55:41.277Z,0.38
2022-11-07T06:58:08.734Z,0.70
2022-11-07T07:00:37.325Z,0.70
2022-11-07T07:03:05.474Z,0.60
2022-11-07T07:05:36.588Z,0.40
2022-11-07T07:08:05.825Z,0.65
2022-11-07T07:10:39.118Z,0.65
2022-11-07T07:13:05.899Z,0.70
2022-11-07T07:15:47.831Z,1.10
2022-11-07T07:18:17.253Z,0.70
2022-11-07T07:20:44.068Z,0.60
2022-11-07T07:23:10.847Z,0.88
2022-11-07T07:25:37.609Z,1.00
2022-11-07T07:28:04.406Z,0.50
2022-11-07T07:30:31.380Z,0.60
2022-11-07T07:32:58.213Z,0.70
2022-11-07T07:35:25.137Z,0.70
2022-11-07T07:37:52.692Z,0.70
2022-11-07T07:40:20.614Z,0.68
2022-11-07T07:42:47.956Z,0.50
2022-11-07T07:45:16.336Z,0.57
2022-11-07T07:47:43.180Z,0.50
2022-11-07T07:50:12.033Z,0.95
2022-11-07T07:52:39.315Z,0.50
2022-11-07T07:55:11.680Z,0.60
2022-11-07T07:57:44.601Z,0.40
2022-11-07T08:00:12.449Z,0.30
2022-11-07T08:02:43.392Z,0.40
2022-11-07T08:05:13.101Z,0.50
2022-11-07T08:07:51.039Z,0.45
2022-11-07T08:10:40.753Z,0.30
2022-11-07T08:13:06.528Z,0.40
2022-11-07T08:15:33.406Z,0.50
2022-11-07T08:18:04.871Z,0.30
2022-11-07T08:20:32.256Z,0.40
2022-11-07T08:23:04.846Z,0.50
2022-11-07T08:25:31.882Z,0.35
2022-11-07T08:27:59.217Z,0.40
2022-11-07T08:30:27.000Z,0.63
2022-11-07T08:32:54.028Z,0.40
2022-11-07T08:35:20.929Z,0.30
2022-11-07T08:37:47.726Z,0.30
2022-11-07T08:40:14.562Z,0.35
2022-11-07T08:42:41.385Z,0.38
2022-11-07T08:45:09.053Z,0.35
2022-11-07T08:47:35.848Z,0.38
2022-11-07T08:50:02.662Z,0.40
2022-11-07T08:52:29.602Z,0.22
2022-11-07T08:54:56.529Z,0.30
2022-11-07T08:57:23.433Z,0.43
2022-11-07T08:59:50.223Z,0.35
2022-11-07T09:05:04.034Z,0.40
2022-11-07T09:07:30.873Z,0.30
2022-11-07T09:09:57.695Z,0.30
2022-11-07T09:12:25.430Z,0.38
2022-11-07T09:14:52.273Z,0.40
2022-11-07T09:17:19.067Z,0.52
2022-11-07T09:19:45.867Z,0.40
2022-11-07T09:22:12.747Z,0.35
2022-11-07T09:24:39.575Z,0.30
2022-11-07T09:27:06.366Z,0.40
2022-11-07T09:29:33.160Z,0.30
2022-11-07T09:32:11.942Z,0.50
2022-11-07T09:34:50.547Z,0.30
2022-11-07T09:37:21.847Z,0.30
2022-11-07T09:39:49.315Z,0.38
2022-11-07T09:43:01.036Z,0.50
2022-11-07T09:45:31.007Z,0.40
2022-11-07T09:48:07.285Z,0.20
2022-11-07T09:50:43.804Z,0.40
2022-11-07T09:53:20.330Z,0.25
2022-11-07T09:56:06.692Z,0.30
2022-11-07T09:58:42.123Z,0.55
2022-11-07T10:01:18.936Z,0.30
2022-11-07T10:04:18.025Z,0.30
2022-11-07T10:06:40.396Z,0.20
2022-11-07T10:09:35.059Z,0.20
2022-11-07T10:12:24.393Z,0.20
2022-11-07T10:15:10.314Z,0.20
2022-11-07T10:18:26.495Z,0.30
2022-11-07T10:21:37.196Z,0.20
2022-11-07T10:24:22.481Z,0.30
2022-11-07T10:26:49.447Z,0.25
2022-11-07T10:29:20.654Z,0.13
2022-11-07T10:32:03.103Z,0.40
2022-11-07T10:34:40.480Z,0.38
2022-11-07T10:37:09.130Z,0.32
2022-11-07T10:39:35.918Z,0.30
2022-11-07T10:42:19.758Z,0.20
2022-11-07T10:44:47.701Z,0.20
2022-11-07T10:47:26.470Z,0.50
2022-11-07T10:50:00.604Z,0.40
2022-11-07T10:52:29.496Z,0.32
2022-11-07T10:55:09.011Z,0.38
2022-11-07T10:57:36.506Z,0.30
2022-11-07T11:00:20.240Z,0.28
2022-11-07T11:02:52.385Z,0.50
2022-11-07T11:05:31.150Z,0.50
2022-11-07T11:08:15.890Z,0.38
2022-11-07T11:10:43.410Z,0.40
2022-11-07T11:13:34.141Z,0.45
2022-11-07T11:16:15.343Z,0.22
2022-11-07T11:18:57.806Z,0.30
2022-11-07T11:21:25.815Z,0.20
2022-11-07T11:23:54.395Z,0.22
2022-11-07T11:26:21.311Z,0.20
2022-11-07T11:29:01.712Z,0.20
2022-11-07T11:31:48.983Z,0.20
2022-11-07T11:34:37.971Z,0.40
2022-11-07T11:37:20.971Z,0.30
2022-11-07T11:39:55.621Z,0.30
2022-11-07T11:42:56.532Z,0.10
2022-11-07T11:48:25.474Z,0.43
2022-11-07T11:51:12.187Z,0.93
2022-11-07T11:53:39.144Z,0.20
2022-11-07T11:56:11.276Z,0.20
2022-11-07T11:58:50.934Z,0.20
2022-11-07T12:01:23.786Z,0.10
2022-11-07T12:04:08.326Z,0.50
2022-11-07T12:06:40.406Z,0.73
2022-11-07T12:09:27.504Z,0.50
2022-11-07T12:12:45.044Z,0.38
2022-11-07T12:15:53.038Z,0.50
2022-11-07T12:18:34.759Z,0.40
2022-11-07T12:21:22.815Z,0.40
2022-11-07T12:24:33.054Z,0.40
2022-11-07T12:27:27.499Z,0.35
2022-11-07T12:30:24.025Z,0.20
2022-11-07T12:32:56.648Z,0.28
2022-11-07T12:35:35.580Z,0.30
2022-11-07T12:38:22.355Z,0.20
2022-11-07T12:41:03.993Z,0.55
2022-11-07T12:43:56.661Z,0.20
2022-11-07T12:46:53.923Z,0.20
2022-11-07T12:50:04.565Z,0.35
2022-11-07T12:53:10.604Z,0.10
2022-11-07T12:55:58.023Z,0.20
2022-11-07T12:58:32.415Z,0.30
2022-11-07T13:01:20.314Z,0.28
2022-11-07T13:04:21.410Z,0.20
2022-11-07T13:07:10.223Z,0.20
2022-11-07T13:09:57.199Z,0.17
2022-11-07T13:12:41.941Z,0.40
2022-11-07T13:15:12.994Z,0.20
2022-11-07T13:17:44.332Z,0.25
2022-11-07T13:20:30.635Z,0.20
2022-11-07T13:23:00.948Z,0.30
2022-11-07T13:25:34.876Z,0.40
2022-11-07T13:28:07.538Z,0.20
2022-11-07T13:30:38.377Z,0.50
2022-11-07T13:35:38.896Z,1.10
2022-11-07T13:38:14.010Z,0.28
2022-11-07T13:40:50.832Z,0.50
2022-11-07T13:43:34.832Z,0.38
2022-11-07T13:46:06.927Z,0.95
2022-11-07T13:48:59.659Z,0.57
2022-11-07T13:51:37.377Z,0.40
2022-11-07T13:54:18.338Z,0.20
2022-11-07T13:56:53.978Z,0.47
2022-11-07T14:00:00.105Z,0.30
2022-11-07T14:02:30.656Z,0.30
2022-11-07T14:05:22.080Z,0.40
2022-11-07T14:08:00.358Z,0.20
2022-11-07T14:10:46.396Z,0.20
2022-11-07T14:13:39.664Z,0.32
2022-11-07T14:16:24.134Z,0.30
2022-11-07T14:19:07.434Z,0.25
2022-11-07T14:21:37.264Z,0.10
2022-11-07T14:24:21.085Z,0.30
2022-11-07T14:27:14.171Z,0.30
2022-11-07T14:29:56.406Z,0.20
2022-11-07T14:32:29.327Z,0.20
2022-11-07T14:35:00.179Z,0.50
2022-11-07T14:37:27.187Z,0.38
2022-11-07T14:39:54.094Z,0.20
2022-11-07T14:42:25.572Z,0.50
2022-11-07T14:44:56.196Z,0.80
2022-11-07T14:47:32.401Z,0.57
2022-11-07T14:50:01.817Z,0.40
2022-11-07T14:52:36.500Z,0.40
2022-11-07T14:55:08.321Z,0.20
2022-11-07T14:57:38.049Z,0.60
2022-11-07T15:00:08.158Z,0.25
2022-11-07T15:02:35.853Z,0.40
2022-11-07T15:05:10.706Z,0.30
2022-11-07T15:07:48.426Z,0.52
2022-11-07T15:10:33.568Z,0.30
2022-11-07T15:13:04.549Z,0.30
2022-11-07T15:15:36.835Z,0.52
2022-11-07T15:18:06.846Z,0.52
2022-11-07T15:20:39.843Z,0.43
2022-11-07T15:23:35.606Z,0.30
2022-11-07T15:26:08.096Z,0.38
2022-11-07T15:28:54.701Z,0.43
2022-11-07T15:31:28.092Z,0.52
2022-11-07T15:33:58.407Z,0.98
2022-11-07T15:36:26.031Z,0.40
2022-11-07T15:38:55.815Z,0.30
2022-11-07T15:41:22.674Z,0.30
2022-11-07T15:43:49.471Z,0.55
2022-11-07T15:46:50.375Z,0.50
2022-11-07T15:49:17.160Z,0.55
2022-11-07T15:51:44.117Z,0.43
2022-11-07T15:54:43.017Z,0.40
2022-11-07T16:00:23.206Z,1.83
2022-11-07T16:02:51.259Z,3.38
2022-11-07T16:05:18.817Z,1.20
2022-11-07T16:07:47.058Z,0.98
2022-11-07T16:10:26.711Z,0.57
2022-11-07T16:12:54.450Z,0.60
2022-11-07T16:15:25.708Z,0.50
2022-11-07T16:17:52.501Z,0.57
2022-11-07T16:20:23.222Z,0.82
2022-11-07T16:25:23.176Z,0.70
2022-11-07T16:27:54.786Z,0.50
2022-11-07T16:30:22.434Z,0.90
2022-11-07T16:32:49.523Z,0.75
2022-11-07T16:35:16.622Z,1.30
2022-11-07T16:37:43.514Z,0.90
2022-11-07T16:40:18.696Z,0.98
2022-11-07T16:42:47.387Z,1.33
2022-11-07T16:45:17.908Z,1.45
2022-11-07T16:47:45.055Z,1.67
2022-11-07T16:50:16.941Z,2.20
2022-11-07T16:52:43.822Z,1.50
2022-11-07T16:55:16.523Z,3.47
2022-11-07T16:57:43.876Z,3.30
2022-11-07T17:00:23.727Z,2.65
2022-11-07T17:02:50.952Z,2.80
2022-11-07T17:05:18.129Z,2.67
2022-11-07T17:07:45.061Z,2.78
2022-11-07T17:10:17.535Z,2.40
2022-11-07T17:12:44.495Z,1.52
2022-11-07T17:15:11.507Z,1.52
2022-11-07T17:17:39.191Z,1.25
2022-11-07T17:20:07.580Z,2.00
2022-11-07T17:22:34.675Z,2.10
2022-11-07T17:25:01.574Z,2.58
2022-11-07T17:27:28.769Z,1.58
2022-11-07T17:29:55.707Z,1.02
2022-11-07T17:32:22.812Z,1.10
2022-11-07T17:35:10.668Z,1.30
2022-11-07T17:37:37.901Z,1.20
2022-11-07T17:40:06.526Z,1.10
2022-11-07T17:42:37.758Z,1.02
2022-11-07T17:45:06.243Z,1.08
2022-11-07T17:47:34.492Z,1.48
2022-11-07T17:50:02.285Z,2.40
2022-11-07T17:52:30.448Z,1.50
2022-11-07T17:54:57.523Z,1.42
2022-11-07T17:57:24.475Z,1.55
2022-11-07T17:59:51.741Z,1.02
2022-11-07T18:02:20.196Z,1.00
2022-11-07T18:04:47.239Z,0.60
2022-11-07T18:07:14.169Z,1.40
2022-11-07T18:09:41.568Z,1.38
2022-11-07T18:12:10.215Z,1.95
2022-11-07T18:14:37.494Z,1.70
2022-11-07T18:17:05.131Z,1.77
2022-11-07T18:19:32.136Z,1.30
2022-11-07T18:21:59.314Z,1.15
2022-11-07T18:24:26.433Z,0.90
2022-11-07T18:26:53.592Z,0.90
2022-11-07T18:29:20.552Z,1.13
2022-11-07T18:31:47.669Z,1.40
2022-11-07T18:34:14.942Z,1.23
2022-11-07T18:36:44.469Z,0.93
2022-11-07T18:39:22.828Z,1.65
2022-11-07T18:41:51.750Z,1.63
2022-11-07T18:44:19.392Z,1.02
2022-11-07T18:46:47.476Z,1.35
2022-11-07T18:49:16.232Z,2.00
2022-11-07T18:51:43.978Z,1.08
2022-11-07T18:54:13.723Z,1.10
2022-11-07T18:59:36.491Z,0.90
2022-11-07T19:02:03.362Z,1.27
2022-11-07T19:04:30.216Z,1.48
2022-11-07T19:06:57.457Z,1.60
2022-11-07T19:09:31.048Z,2.08
2022-11-07T19:12:00.803Z,2.30
2022-11-07T19:14:29.749Z,2.30
2022-11-07T19:16:57.655Z,1.85
2022-11-07T19:19:24.724Z,1.70
2022-11-07T19:21:51.574Z,1.20
2022-11-07T19:24:18.484Z,1.40
2022-11-07T19:26:45.495Z,1.10
2022-11-07T19:29:12.594Z,1.35
2022-11-07T19:31:39.483Z,1.50
2022-11-07T19:34:06.619Z,2.47
2022-11-07T19:36:33.924Z,2.55
2022-11-07T19:39:03.009Z,3.05
2022-11-07T19:41:29.963Z,1.70
2022-11-07T19:43:57.384Z,1.52
2022-11-07T19:46:24.585Z,1.60
2022-11-07T19:48:51.759Z,2.50
2022-11-07T19:51:23.115Z,2.45
2022-11-07T19:54:00.029Z,3.90
2022-11-07T19:56:30.860Z,1.98
2022-11-07T20:01:31.746Z,1.60
2022-11-07T20:03:59.110Z,1.88
2022-11-07T20:06:31.893Z,2.63
2022-11-07T20:09:00.179Z,3.10
2022-11-07T20:11:27.457Z,3.30
2022-11-07T20:13:58.635Z,3.20
2022-11-07T20:16:29.054Z,3.17
2022-11-07T20:18:55.833Z,3.47
2022-11-07T20:21:23.649Z,3.83
2022-11-07T20:23:53.740Z,3.17
2022-11-07T20:26:24.459Z,3.35
2022-11-07T20:28:52.638Z,3.42
2022-11-07T20:31:29.855Z,5.00
2022-11-07T20:34:07.151Z,4.85
2022-11-07T20:36:34.813Z,4.32
2022-11-07T20:39:02.971Z,3.67
2022-11-07T20:41:29.929Z,3.42
2022-11-07T20:44:03.479Z,3.88
2022-11-07T20:46:33.700Z,3.38
2022-11-07T20:49:06.836Z,2.25
2022-11-07T20:51:34.070Z,2.95
2022-11-07T20:54:01.136Z,2.85
2022-11-07T20:56:29.013Z,3.28
2022-11-07T20:58:57.985Z,2.78
2022-11-07T21:01:37.885Z,3.13
2022-11-07T21:04:07.782Z,2.87
2022-11-07T21:06:35.811Z,3.33
2022-11-07T21:09:03.913Z,2.72
2022-11-07T21:11:30.953Z,2.92
2022-11-07T21:13:58.003Z,3.10
2022-11-07T21:16:26.507Z,2.45
2022-11-07T21:18:55.363Z,2.50
2022-11-07T21:21:27.351Z,2.25
2022-11-07T21:23:57.207Z,2.20
2022-11-07T21:26:30.696Z,2.67
2022-11-07T21:28:58.387Z,2.00
2022-11-07T21:31:29.756Z,1.85
2022-11-07T21:33:57.609Z,2.30
2022-11-07T21:36:28.561Z,1.70
2022-11-07T21:38:57.403Z,1.88
2022-11-07T21:41:25.209Z,2.58
2022-11-07T21:43:52.493Z,1.58
2022-11-07T21:46:34.305Z,2.00
2022-11-07T21:49:01.667Z,2.30
2022-11-07T21:51:31.441Z,1.58
2022-11-07T21:54:00.100Z,1.52
2022-11-07T21:56:36.297Z,1.35
2022-11-07T21:59:07.468Z,1.77
2022-11-07T22:01:36.213Z,1.20
2022-11-07T22:04:08.999Z,1.27
2022-11-07T22:06:40.476Z,1.50
2022-11-07T22:11:35.888Z,1.35
2022-11-07T22:14:03.432Z,1.20
2022-11-07T22:16:30.530Z,1.67
2022-11-07T22:19:00.033Z,1.42
2022-11-07T22:21:27.431Z,1.42
2022-11-07T22:23:56.086Z,1.08
2022-11-07T22:26:25.918Z,1.30
2022-11-07T22:28:53.980Z,0.93
2022-11-07T22:31:23.625Z,1.17
2022-11-07T22:33:52.802Z,1.00
2022-11-07T22:36:21.200Z,1.40
2022-11-07T22:38:48.945Z,1.23
2022-11-07T22:41:20.082Z,1.10
2022-11-07T22:43:47.900Z,1.38
2022-11-07T22:46:18.776Z,1.10
2022-11-07T22:51:20.500Z,1.20
2022-11-07T22:53:47.983Z,1.60
2022-11-07T22:56:19.554Z,1.70
2022-11-07T22:58:47.445Z,1.60
2022-11-07T23:01:22.494Z,1.40
2022-11-07T23:03:51.090Z,1.50
2022-11-07T23:06:19.141Z,1.30
2022-11-07T23:08:47.253Z,1.05
2022-11-07T23:14:16.689Z,1.50
2022-11-07T23:16:48.175Z,1.52
2022-11-07T23:19:18.188Z,2.13
2022-11-07T23:21:45.250Z,2.37
2022-11-07T23:24:12.806Z,1.92
2022-11-07T23:26:40.047Z,1.52
2022-11-07T23:29:25.225Z,1.67
2022-11-07T23:31:53.231Z,1.52
2022-11-07T23:34:22.027Z,1.20
2022-11-07T23:36:52.901Z,1.15
2022-11-07T23:41:49.251Z,1.17
2022-11-07T23:44:16.284Z,1.13
2022-11-07T23:47:02.658Z,1.50
2022-11-07T23:49:48.626Z,1.20
2022-11-07T23:52:16.530Z,1.30
2022-11-07T23:55:01.929Z,1.10
2022-11-07T23:57:28.798Z,1.10
